createdAt,value
2022-09-17T00:01:31.375Z,100.00
2022-09-17T00:04:04.949Z,100.00
2022-09-17T00:06:35.261Z,100.00
2022-09-17T00:09:05.433Z,100.00
2022-09-17T00:11:37.373Z,100.00
2022-09-17T00:14:07.079Z,100.00
2022-09-17T00:16:48.963Z,100.00
2022-09-17T00:19:22.885Z,100.00
2022-09-17T00:21:50.234Z,100.00
2022-09-17T00:24:21.010Z,100.00
2022-09-17T00:26:50.151Z,100.00
2022-09-17T00:29:17.647Z,100.00
2022-09-17T00:31:45.228Z,100.00
2022-09-17T00:34:12.640Z,100.00
2022-09-17T00:36:40.484Z,100.00
2022-09-17T00:39:11.010Z,100.00
2022-09-17T00:41:39.644Z,100.00
2022-09-17T00:44:47.017Z,100.00
2022-09-17T00:47:34.422Z,100.00
2022-09-17T00:50:12.573Z,100.00
2022-09-17T00:53:05.307Z,100.00
2022-09-17T00:55:41.566Z,100.00
2022-09-17T00:58:11.826Z,100.00
2022-09-17T01:00:39.365Z,100.00
2022-09-17T01:03:07.535Z,100.00
2022-09-17T01:06:00.304Z,100.00
2022-09-17T01:09:18.572Z,100.00
2022-09-17T01:12:05.003Z,100.00
2022-09-17T01:15:14.752Z,100.00
2022-09-17T01:18:05.092Z,100.00
2022-09-17T01:20:57.626Z,100.00
2022-09-17T01:23:55.502Z,100.00
2022-09-17T01:26:54.755Z,100.00
2022-09-17T01:30:14.228Z,100.00
2022-09-17T01:33:15.725Z,100.00
2022-09-17T01:35:59.230Z,100.00
2022-09-17T01:38:47.601Z,100.00
2022-09-17T01:42:00.302Z,100.00
2022-09-17T01:44:37.215Z,100.00
2022-09-17T01:47:21.165Z,100.00
2022-09-17T01:49:53.357Z,100.00
2022-09-17T01:52:21.454Z,100.00
2022-09-17T01:54:56.892Z,100.00
2022-09-17T01:57:33.156Z,100.00
2022-09-17T02:00:17.691Z,100.00
2022-09-17T02:03:01.316Z,100.00
2022-09-17T02:05:45.508Z,100.00
2022-09-17T02:08:35.999Z,100.00
2022-09-17T02:11:15.502Z,100.00
2022-09-17T02:13:50.102Z,100.00
2022-09-17T02:16:25.156Z,100.00
2022-09-17T02:19:20.773Z,100.00
2022-09-17T02:22:09.655Z,100.00
2022-09-17T02:25:02.203Z,100.00
2022-09-17T02:27:44.708Z,100.00
2022-09-17T02:30:13.546Z,100.00
2022-09-17T02:32:42.472Z,100.00
2022-09-17T02:35:15.997Z,100.00
2022-09-17T02:37:44.653Z,100.00
2022-09-17T02:40:15.797Z,100.00
2022-09-17T02:43:18.497Z,100.00
2022-09-17T02:46:14.958Z,100.00
2022-09-17T02:49:23.944Z,100.00
2022-09-17T02:52:39.540Z,100.00
2022-09-17T02:55:18.939Z,100.00
2022-09-17T02:58:16.735Z,100.00
2022-09-17T03:00:47.685Z,100.00
2022-09-17T03:03:32.237Z,100.00
2022-09-17T03:06:00.443Z,100.00
2022-09-17T03:08:32.387Z,100.00
2022-09-17T03:10:59.672Z,100.00
2022-09-17T03:13:26.820Z,100.00
2022-09-17T03:15:54.044Z,100.00
2022-09-17T03:18:21.195Z,100.00
2022-09-17T03:20:48.303Z,100.00
2022-09-17T03:23:16.311Z,100.00
2022-09-17T03:25:43.863Z,100.00
2022-09-17T03:28:11.310Z,100.00
2022-09-17T03:30:38.707Z,100.00
2022-09-17T03:33:05.901Z,100.00
2022-09-17T03:35:32.998Z,100.00
2022-09-17T03:38:00.158Z,100.00
2022-09-17T03:40:27.340Z,100.00
2022-09-17T03:42:54.531Z,100.00
2022-09-17T03:45:21.681Z,100.00
2022-09-17T03:47:48.841Z,100.00
2022-09-17T03:50:16.214Z,100.00
2022-09-17T03:52:46.340Z,100.00
2022-09-17T03:55:13.732Z,100.00
2022-09-17T03:57:40.824Z,100.00
2022-09-17T04:00:08.978Z,100.00
2022-09-17T04:02:39.728Z,100.00
2022-09-17T04:05:08.249Z,100.00
2022-09-17T04:07:35.426Z,100.00
2022-09-17T04:10:02.714Z,100.00
2022-09-17T04:12:29.866Z,100.00
2022-09-17T04:14:57.011Z,100.00
2022-09-17T04:17:24.151Z,100.00
2022-09-17T04:19:51.407Z,100.00
2022-09-17T04:22:18.546Z,100.00
2022-09-17T04:24:45.620Z,100.00
2022-09-17T04:27:12.818Z,100.00
2022-09-17T04:29:39.948Z,100.00
2022-09-17T04:32:07.450Z,100.00
2022-09-17T04:34:34.939Z,100.00
2022-09-17T04:37:02.057Z,100.00
2022-09-17T04:39:29.269Z,100.00
2022-09-17T04:41:56.454Z,100.00
2022-09-17T04:44:23.604Z,100.00
2022-09-17T04:46:50.808Z,100.00
2022-09-17T04:49:18.005Z,100.00
2022-09-17T04:51:45.099Z,100.00
2022-09-17T04:54:12.327Z,100.00
2022-09-17T04:56:40.624Z,100.00
2022-09-17T04:59:07.906Z,100.00
2022-09-17T05:01:35.008Z,100.00
2022-09-17T05:04:02.343Z,100.00
2022-09-17T05:06:29.406Z,100.00
2022-09-17T05:08:56.565Z,100.00
2022-09-17T05:11:23.710Z,100.00
2022-09-17T05:13:50.814Z,100.00
2022-09-17T05:16:21.281Z,100.00
2022-09-17T05:18:49.588Z,100.00
2022-09-17T05:21:16.691Z,100.00
2022-09-17T05:23:43.895Z,100.00
2022-09-17T05:26:11.061Z,100.00
2022-09-17T05:28:38.254Z,100.00
2022-09-17T05:31:05.829Z,100.00
2022-09-17T05:33:33.019Z,100.00
2022-09-17T05:36:00.262Z,100.00
2022-09-17T05:38:27.420Z,100.00
2022-09-17T05:40:54.549Z,100.00
2022-09-17T05:43:21.718Z,100.00
2022-09-17T05:45:48.867Z,100.00
2022-09-17T05:48:16.298Z,100.00
2022-09-17T05:50:45.763Z,100.00
2022-09-17T05:53:14.108Z,100.00
2022-09-17T05:55:41.246Z,100.00
2022-09-17T05:58:19.064Z,100.00
2022-09-17T06:00:48.926Z,100.00
2022-09-17T06:03:19.275Z,100.00
2022-09-17T06:05:58.789Z,100.00
2022-09-17T06:08:28.657Z,100.00
2022-09-17T06:11:00.197Z,100.00
2022-09-17T06:13:29.043Z,100.00
2022-09-17T06:15:56.203Z,100.00
2022-09-17T06:18:23.498Z,100.00
2022-09-17T06:20:55.176Z,100.00
2022-09-17T06:23:22.725Z,100.00
2022-09-17T06:26:00.679Z,100.00
2022-09-17T06:28:28.887Z,100.00
2022-09-17T06:31:02.877Z,100.00
2022-09-17T06:33:31.200Z,100.00
2022-09-17T06:36:00.930Z,100.00
2022-09-17T06:38:29.245Z,100.00
2022-09-17T06:40:56.626Z,100.00
2022-09-17T06:43:24.391Z,100.00
2022-09-17T06:45:57.453Z,100.00
2022-09-17T06:48:26.873Z,100.00
2022-09-17T06:50:54.706Z,100.00
2022-09-17T06:53:24.140Z,100.00
2022-09-17T06:55:51.275Z,100.00
2022-09-17T06:58:18.413Z,100.00
2022-09-17T07:00:45.582Z,100.00
2022-09-17T07:03:12.837Z,100.00
2022-09-17T07:05:40.001Z,100.00
2022-09-17T07:08:07.134Z,100.00
2022-09-17T07:10:34.242Z,100.00
2022-09-17T07:13:01.509Z,100.00
2022-09-17T07:15:30.296Z,100.00
2022-09-17T07:17:57.439Z,100.00
2022-09-17T07:20:24.680Z,100.00
2022-09-17T07:22:57.421Z,100.00
2022-09-17T07:25:29.365Z,100.00
2022-09-17T07:27:56.799Z,100.00
2022-09-17T07:30:24.217Z,100.00
2022-09-17T07:32:51.417Z,100.00
2022-09-17T07:35:18.681Z,100.00
2022-09-17T07:37:45.875Z,100.00
2022-09-17T07:40:13.053Z,100.00
2022-09-17T07:42:40.778Z,100.00
2022-09-17T07:45:09.866Z,100.00
2022-09-17T07:47:41.516Z,100.00
2022-09-17T07:50:09.482Z,100.00
2022-09-17T07:52:36.758Z,100.00
2022-09-17T07:55:04.262Z,100.00
2022-09-17T07:57:31.444Z,100.00
2022-09-17T07:59:58.602Z,100.00
2022-09-17T08:02:25.856Z,100.00
2022-09-17T08:04:53.254Z,100.00
2022-09-17T08:07:20.413Z,100.00
2022-09-17T08:09:47.680Z,100.00
2022-09-17T08:12:14.761Z,100.00
2022-09-17T08:14:42.374Z,100.00
2022-09-17T08:17:09.527Z,100.00
2022-09-17T08:19:36.699Z,100.00
2022-09-17T08:22:03.847Z,100.00
2022-09-17T08:24:31.002Z,100.00
2022-09-17T08:26:58.315Z,100.00
2022-09-17T08:29:25.460Z,100.00
2022-09-17T08:31:52.701Z,100.00
2022-09-17T08:34:20.017Z,100.00
2022-09-17T08:36:47.084Z,100.00
2022-09-17T08:39:14.309Z,100.00
2022-09-17T08:41:41.640Z,100.00
2022-09-17T08:44:41.922Z,100.00
2022-09-17T08:47:25.053Z,100.00
2022-09-17T08:49:58.828Z,100.00
2022-09-17T08:53:08.959Z,100.00
2022-09-17T08:55:43.594Z,100.00
2022-09-17T08:58:33.521Z,100.00
2022-09-17T09:01:28.273Z,100.00
2022-09-17T09:04:42.601Z,100.00
2022-09-17T09:07:24.152Z,100.00
2022-09-17T09:10:12.567Z,100.00
2022-09-17T09:12:42.805Z,100.00
2022-09-17T09:15:47.350Z,100.00
2022-09-17T09:18:29.355Z,100.00
2022-09-17T09:21:23.972Z,100.00
2022-09-17T09:24:26.193Z,100.00
2022-09-17T09:27:09.937Z,100.00
2022-09-17T09:30:10.576Z,100.00
2022-09-17T09:33:00.520Z,100.00
2022-09-17T09:35:35.678Z,100.00
2022-09-17T09:38:29.130Z,100.00
2022-09-17T09:41:26.917Z,100.00
2022-09-17T09:44:09.737Z,100.00
2022-09-17T09:47:19.376Z,100.00
2022-09-17T09:50:42.988Z,100.00
2022-09-17T09:54:04.465Z,100.00
2022-09-17T09:57:00.262Z,100.00
2022-09-17T09:59:27.582Z,100.00
2022-09-17T10:01:54.810Z,100.00
2022-09-17T10:04:28.380Z,100.00
2022-09-17T10:07:11.316Z,100.00
2022-09-17T10:09:45.670Z,100.00
2022-09-17T10:12:12.726Z,100.00
2022-09-17T10:14:42.200Z,100.00
2022-09-17T10:17:26.092Z,100.00
2022-09-17T10:20:03.394Z,100.00
2022-09-17T10:22:42.650Z,100.00
2022-09-17T10:25:32.351Z,100.00
2022-09-17T10:28:04.730Z,100.00
2022-09-17T10:30:32.522Z,100.00
2022-09-17T10:33:24.609Z,100.00
2022-09-17T10:36:01.286Z,100.00
2022-09-17T10:38:44.433Z,95.22
2022-09-17T10:41:21.898Z,89.91
2022-09-17T10:43:50.031Z,82.38
2022-09-17T10:46:28.781Z,88.29
2022-09-17T10:49:06.786Z,81.69
2022-09-17T10:51:34.604Z,81.42
2022-09-17T10:54:13.391Z,80.67
2022-09-17T10:56:47.097Z,77.31
2022-09-17T10:59:50.987Z,75.96
2022-09-17T11:02:48.233Z,73.06
2022-09-17T11:05:30.154Z,72.39
2022-09-17T11:08:34.694Z,69.80
2022-09-17T11:11:11.771Z,70.76
2022-09-17T11:14:13.245Z,70.46
2022-09-17T11:16:54.820Z,70.86
2022-09-17T11:19:36.811Z,76.46
2022-09-17T11:22:19.463Z,77.13
2022-09-17T11:25:02.707Z,77.29
2022-09-17T11:28:03.641Z,82.96
2022-09-17T11:31:14.733Z,89.34
2022-09-17T11:34:03.084Z,92.52
2022-09-17T11:36:47.766Z,94.73
2022-09-17T11:39:28.551Z,91.71
2022-09-17T11:41:56.876Z,90.42
2022-09-17T11:44:40.909Z,87.93
2022-09-17T11:47:14.688Z,86.87
2022-09-17T11:49:58.235Z,84.99
2022-09-17T11:52:51.481Z,85.62
2022-09-17T11:55:35.201Z,85.85
2022-09-17T11:58:27.861Z,84.52
2022-09-17T12:01:06.161Z,83.49
2022-09-17T12:04:03.039Z,82.52
2022-09-17T12:06:52.425Z,81.00
2022-09-17T12:09:26.129Z,78.17
2022-09-17T12:12:37.954Z,79.79
2022-09-17T12:15:20.314Z,80.62
2022-09-17T12:18:30.452Z,75.46
2022-09-17T12:20:57.200Z,74.71
2022-09-17T12:23:47.006Z,74.87
2022-09-17T12:26:26.302Z,76.81
2022-09-17T12:29:29.815Z,75.29
2022-09-17T12:32:31.276Z,78.19
2022-09-17T12:36:03.054Z,78.14
2022-09-17T12:39:02.865Z,79.42
2022-09-17T12:41:59.653Z,77.87
2022-09-17T12:45:00.274Z,68.94
2022-09-17T12:47:51.521Z,67.00
2022-09-17T12:51:04.824Z,60.51
2022-09-17T12:54:24.634Z,57.56
2022-09-17T12:57:03.949Z,57.54
2022-09-17T12:59:36.273Z,57.25
2022-09-17T13:02:18.134Z,57.20
2022-09-17T13:05:02.211Z,56.13
2022-09-17T13:08:06.822Z,55.64
2022-09-17T13:10:55.891Z,51.89
2022-09-17T13:13:47.710Z,51.32
2022-09-17T13:16:44.454Z,52.38
2022-09-17T13:19:39.350Z,53.70
2022-09-17T13:22:30.875Z,54.98
2022-09-17T13:25:13.930Z,55.76
2022-09-17T13:27:41.784Z,58.92
2022-09-17T13:30:12.033Z,58.45
2022-09-17T13:32:39.791Z,60.00
2022-09-17T13:35:06.769Z,59.18
2022-09-17T13:37:37.657Z,58.44
2022-09-17T13:40:20.161Z,59.87
2022-09-17T13:42:51.879Z,60.96
2022-09-17T13:45:20.345Z,62.20
2022-09-17T13:48:00.711Z,62.85
2022-09-17T13:50:44.394Z,56.31
2022-09-17T13:53:14.488Z,53.00
2022-09-17T13:56:01.059Z,54.56
2022-09-17T13:58:32.300Z,56.40
2022-09-17T14:01:04.379Z,55.39
2022-09-17T14:03:31.499Z,54.34
2022-09-17T14:06:05.113Z,53.45
2022-09-17T14:08:50.043Z,54.10
2022-09-17T14:11:26.890Z,53.27
2022-09-17T14:14:06.142Z,53.89
2022-09-17T14:16:43.064Z,54.59
2022-09-17T14:19:16.440Z,55.59
2022-09-17T14:22:02.067Z,56.91
2022-09-17T14:24:38.121Z,57.66
2022-09-17T14:27:46.529Z,57.58
2022-09-17T14:30:21.312Z,57.30
2022-09-17T14:32:54.293Z,58.03
2022-09-17T14:35:48.536Z,58.03
2022-09-17T14:38:37.286Z,57.71
2022-09-17T14:41:11.441Z,58.01
2022-09-17T14:43:47.644Z,55.14
2022-09-17T14:46:37.448Z,55.09
2022-09-17T14:49:33.740Z,52.97
2022-09-17T14:52:02.268Z,52.34
2022-09-17T14:54:35.991Z,48.71
2022-09-17T14:57:27.996Z,46.32
2022-09-17T14:59:57.732Z,45.41
2022-09-17T15:02:43.835Z,43.94
2022-09-17T15:05:28.239Z,41.63
2022-09-17T15:08:10.499Z,37.95
2022-09-17T15:11:11.935Z,38.28
2022-09-17T15:13:52.699Z,36.43
2022-09-17T15:16:25.717Z,36.28
2022-09-17T15:18:56.526Z,37.89
2022-09-17T15:21:46.773Z,39.69
2022-09-17T15:24:23.878Z,38.74
2022-09-17T15:26:55.084Z,42.03
2022-09-17T15:29:28.336Z,44.45
2022-09-17T15:31:55.729Z,46.44
2022-09-17T15:34:23.651Z,49.81
2022-09-17T15:37:28.448Z,52.32
2022-09-17T15:39:56.642Z,54.78
2022-09-17T15:42:31.278Z,56.02
2022-09-17T15:45:21.573Z,58.79
2022-09-17T15:47:53.906Z,59.80
2022-09-17T15:50:29.020Z,60.72
2022-09-17T15:53:15.103Z,60.74
2022-09-17T15:56:02.629Z,58.06
2022-09-17T15:58:41.998Z,59.17
2022-09-17T16:01:29.070Z,60.03
2022-09-17T16:04:18.187Z,60.60
2022-09-17T16:06:59.672Z,58.34
2022-09-17T16:09:57.621Z,56.95
2022-09-17T16:12:29.009Z,57.40
2022-09-17T16:14:59.162Z,57.64
2022-09-17T16:17:47.390Z,58.27
2022-09-17T16:20:25.973Z,59.48
2022-09-17T16:22:53.868Z,59.96
2022-09-17T16:25:29.080Z,61.55
2022-09-17T16:28:18.387Z,62.31
2022-09-17T16:30:49.477Z,62.63
2022-09-17T16:33:19.059Z,61.20
2022-09-17T16:35:46.374Z,60.09
2022-09-17T16:38:13.705Z,59.43
2022-09-17T16:40:49.698Z,59.35
2022-09-17T16:43:16.837Z,59.37
2022-09-17T16:45:57.789Z,60.10
2022-09-17T16:48:24.897Z,59.38
2022-09-17T16:50:52.212Z,59.21
2022-09-17T16:53:19.471Z,59.25
2022-09-17T16:55:46.661Z,57.98
2022-09-17T16:58:13.976Z,58.08
2022-09-17T17:00:45.006Z,58.29
2022-09-17T17:03:14.245Z,57.74
2022-09-17T17:05:41.481Z,57.85
2022-09-17T17:08:09.074Z,58.24
2022-09-17T17:10:38.359Z,58.22
2022-09-17T17:13:06.230Z,59.61
2022-09-17T17:15:33.356Z,60.19
2022-09-17T17:18:00.616Z,61.66
2022-09-17T17:20:27.890Z,63.79
2022-09-17T17:22:55.433Z,66.39
2022-09-17T17:25:23.759Z,69.21
2022-09-17T17:27:50.994Z,72.77
2022-09-17T17:30:18.325Z,76.80
2022-09-17T17:32:51.031Z,77.75
2022-09-17T17:35:21.706Z,80.08
2022-09-17T17:37:48.878Z,82.40
2022-09-17T17:40:16.142Z,82.86
2022-09-17T17:42:44.293Z,85.38
2022-09-17T17:45:11.465Z,88.22
2022-09-17T17:47:38.600Z,87.99
2022-09-17T17:50:06.357Z,90.65
2022-09-17T17:52:33.486Z,91.48
2022-09-17T17:55:00.646Z,95.96
2022-09-17T17:57:27.823Z,96.58
2022-09-17T17:59:55.001Z,100.00
2022-09-17T18:02:22.317Z,100.00
2022-09-17T18:04:49.548Z,100.00
2022-09-17T18:07:16.678Z,100.00
2022-09-17T18:09:44.549Z,100.00
2022-09-17T18:12:11.648Z,100.00
2022-09-17T18:14:38.759Z,100.00
2022-09-17T18:17:06.015Z,100.00
2022-09-17T18:19:33.263Z,100.00
2022-09-17T18:22:00.449Z,100.00
2022-09-17T18:24:27.582Z,100.00
2022-09-17T18:26:54.733Z,100.00
2022-09-17T18:29:21.935Z,100.00
2022-09-17T18:31:49.197Z,100.00
2022-09-17T18:34:17.230Z,100.00
2022-09-17T18:36:50.783Z,100.00
2022-09-17T18:42:08.164Z,100.00
2022-09-17T18:44:35.342Z,100.00
2022-09-17T18:47:02.735Z,100.00
2022-09-17T18:49:29.882Z,100.00
2022-09-17T18:51:56.981Z,100.00
2022-09-17T18:54:24.193Z,100.00
2022-09-17T18:56:51.332Z,100.00
2022-09-17T18:59:18.472Z,100.00
2022-09-17T19:01:45.609Z,100.00
2022-09-17T19:04:12.836Z,100.00
2022-09-17T19:06:40.772Z,100.00
2022-09-17T19:09:09.358Z,100.00
2022-09-17T19:11:36.545Z,100.00
2022-09-17T19:14:03.987Z,100.00
2022-09-17T19:16:31.154Z,100.00
2022-09-17T19:18:58.369Z,100.00
2022-09-17T19:21:25.568Z,100.00
2022-09-17T19:23:53.275Z,100.00
2022-09-17T19:26:24.983Z,100.00
2022-09-17T19:28:58.311Z,100.00
2022-09-17T19:31:26.490Z,100.00
2022-09-17T19:33:53.785Z,100.00
2022-09-17T19:36:21.267Z,100.00
2022-09-17T19:38:49.299Z,100.00
2022-09-17T19:41:20.063Z,100.00
2022-09-17T19:43:47.882Z,100.00
2022-09-17T19:46:24.222Z,100.00
2022-09-17T19:48:55.118Z,100.00
2022-09-17T19:51:24.793Z,100.00
2022-09-17T19:53:53.090Z,100.00
2022-09-17T19:56:23.690Z,100.00
2022-09-17T19:58:51.427Z,100.00
2022-09-17T20:01:19.958Z,100.00
2022-09-17T20:03:48.646Z,100.00
2022-09-17T20:06:18.958Z,100.00
2022-09-17T20:08:52.381Z,100.00
2022-09-17T20:11:21.978Z,100.00
2022-09-17T20:13:49.549Z,100.00
2022-09-17T20:16:21.058Z,100.00
2022-09-17T20:18:49.286Z,100.00
2022-09-17T20:21:20.515Z,100.00
2022-09-17T20:23:47.967Z,100.00
2022-09-17T20:26:16.451Z,100.00
2022-09-17T20:28:44.187Z,100.00
2022-09-17T20:31:15.551Z,100.00
2022-09-17T20:33:43.407Z,100.00
2022-09-17T20:36:17.002Z,100.00
2022-09-17T20:41:32.368Z,100.00
2022-09-17T20:43:59.621Z,100.00
2022-09-17T20:46:29.412Z,100.00
2022-09-17T20:48:58.343Z,100.00
2022-09-17T20:51:29.259Z,100.00
2022-09-17T20:53:57.616Z,100.00
2022-09-17T20:56:29.176Z,100.00
2022-09-17T20:59:13.322Z,100.00
2022-09-17T21:01:44.724Z,100.00
2022-09-17T21:04:16.155Z,100.00
2022-09-17T21:06:46.860Z,100.00
2022-09-17T21:09:17.753Z,100.00
2022-09-17T21:11:46.913Z,100.00
2022-09-17T21:14:15.874Z,100.00
2022-09-17T21:16:43.738Z,100.00
2022-09-17T21:19:13.189Z,100.00
2022-09-17T21:21:40.434Z,100.00
2022-09-17T21:24:10.208Z,100.00
2022-09-17T21:26:37.727Z,100.00
2022-09-17T21:29:05.228Z,100.00
2022-09-17T21:31:36.631Z,100.00
2022-09-17T21:34:11.652Z,100.00
2022-09-17T21:36:40.970Z,100.00
2022-09-17T21:39:14.401Z,100.00
2022-09-17T21:41:43.765Z,100.00
2022-09-17T21:44:12.328Z,100.00
2022-09-17T21:46:41.390Z,100.00
2022-09-17T21:49:09.165Z,100.00
2022-09-17T21:51:42.576Z,100.00
2022-09-17T21:54:14.405Z,100.00
2022-09-17T21:56:41.923Z,100.00
2022-09-17T21:59:12.541Z,100.00
2022-09-17T22:01:46.232Z,100.00
2022-09-17T22:04:20.806Z,100.00
2022-09-17T22:06:49.759Z,100.00
2022-09-17T22:09:26.254Z,100.00
2022-09-17T22:11:53.780Z,100.00
2022-09-17T22:14:24.295Z,100.00
2022-09-17T22:16:55.253Z,100.00
2022-09-17T22:19:24.561Z,100.00
2022-09-17T22:21:55.205Z,100.00
2022-09-17T22:24:23.525Z,100.00
2022-09-17T22:26:57.398Z,100.00
2022-09-17T22:29:27.173Z,100.00
2022-09-17T22:31:54.449Z,100.00
2022-09-17T22:34:23.341Z,100.00
2022-09-17T22:36:50.771Z,100.00
2022-09-17T22:39:21.544Z,100.00
2022-09-17T22:41:49.125Z,100.00
2022-09-17T22:44:19.428Z,100.00
2022-09-17T22:46:51.714Z,100.00
2022-09-17T22:49:19.445Z,100.00
2022-09-17T22:51:47.250Z,100.00
2022-09-17T22:54:17.254Z,100.00
2022-09-17T22:56:45.867Z,100.00
2022-09-17T22:59:13.014Z,100.00
2022-09-17T23:01:41.218Z,100.00
2022-09-17T23:04:09.267Z,100.00
2022-09-17T23:06:39.777Z,100.00
2022-09-17T23:09:07.189Z,100.00
2022-09-17T23:11:39.082Z,100.00
2022-09-17T23:14:10.484Z,100.00
2022-09-17T23:16:42.516Z,100.00
2022-09-17T23:19:10.924Z,100.00
2022-09-17T23:21:39.134Z,100.00
2022-09-17T23:24:07.442Z,100.00
2022-09-17T23:26:34.755Z,100.00
2022-09-17T23:29:04.951Z,100.00
2022-09-17T23:31:35.148Z,100.00
2022-09-17T23:34:04.843Z,100.00
2022-09-17T23:36:36.271Z,100.00
2022-09-17T23:39:06.401Z,100.00
2022-09-17T23:41:40.619Z,100.00
2022-09-17T23:44:14.514Z,100.00
2022-09-17T23:46:44.362Z,100.00
2022-09-17T23:49:13.627Z,100.00
2022-09-17T23:51:41.213Z,100.00
2022-09-17T23:54:08.614Z,100.00
2022-09-17T23:56:36.036Z,100.00
2022-09-17T23:59:04.564Z,100.00
